< Typhoon 197016 1970 Season Typhoon 197018 >
Typhoon 197017 (HOPE)
General InformationTrack Information on Google Maps || Disaster Info.ResourceGoogle EarthGE AnimationAtom FeedGeoJSON
Detalied Best Track (Time Zone = UTC)
Year Month Day Hour Lat. Long. Pressure (hPa) Wind (kt) Class Image Chart
1970 9 19 06 13.1 171.8 1007 0 2 -- Chart
1970 9 19 12 13.3 170.5 1004 0 2 -- Chart
1970 9 19 18 13.8 169.2 1002 0 2 -- Chart
1970 9 20 00 13.9 167.8 998 0 2 -- Chart
1970 9 20 06 14.2 166.7 998 0 9 -- Chart
1970 9 20 12 14.5 164.8 998 0 9 -- Chart
1970 9 20 18 14.7 163.2 998 0 9 -- Chart
1970 9 21 00 14.8 161.3 998 0 9 -- Chart
1970 9 21 06 15.1 160.2 998 0 9 -- Chart
1970 9 21 12 15.2 158.8 998 0 9 -- Chart
1970 9 21 18 15.3 157.2 998 0 9 -- Chart
1970 9 22 00 15.6 155.2 998 0 9 -- Chart
1970 9 22 06 15.8 154.2 985 0 9 -- Chart
1970 9 22 12 16.4 153.2 985 0 9 -- Chart
1970 9 22 18 17.2 152.2 980 0 9 -- Chart
1970 9 23 00 17.8 151.2 975 0 9 -- Chart
1970 9 23 06 18.8 149.9 960 0 9 -- Chart
1970 9 23 12 19.5 149.0 940 0 9 -- Chart
1970 9 23 18 20.2 147.8 910 0 9 -- Chart
1970 9 24 00 20.8 147.0 900 0 9 -- Chart
1970 9 24 06 21.8 146.0 910 0 9 -- Chart
1970 9 24 12 22.9 145.1 920 0 9 -- Chart
1970 9 24 18 24.2 144.5 930 0 9 -- Chart
1970 9 25 00 25.3 143.8 940 0 9 -- Chart
1970 9 25 06 26.2 143.0 945 0 9 -- Chart
1970 9 25 12 27.5 142.3 945 0 9 -- Chart
1970 9 25 18 28.6 142.3 950 0 9 -- Chart
1970 9 26 00 29.7 142.5 950 0 9 -- Chart
1970 9 26 06 30.6 143.0 955 0 9 -- Chart
1970 9 26 12 31.3 144.2 950 0 9 -- Chart
1970 9 26 18 31.8 145.8 950 0 9 -- Chart
1970 9 27 00 32.4 147.0 955 0 9 -- Chart
1970 9 27 06 32.5 148.3 960 0 9 -- Chart
1970 9 27 12 32.6 150.0 965 0 9 -- Chart
1970 9 27 18 32.7 151.3 965 0 9 -- Chart
1970 9 28 00 32.7 152.5 970 0 9 -- Chart
1970 9 28 06 32.2 154.0 970 0 9 -- Chart
1970 9 28 12 32.0 155.4 980 0 9 -- Chart
1970 9 28 18 31.8 156.2 990 0 9 -- Chart
1970 9 29 00 31.0 156.6 995 0 9 -- Chart
1970 9 29 06 29.7 156.6 1000 0 9 -- Chart
1970 9 29 12 29.0 156.2 1006 0 2 -- Chart
1970 9 29 18 28.6 155.5 1010 0 2 -- Chart
1970 9 30 00 29.2 154.5 1012 0 2 -- Chart
1970 9 30 06 30.0 154.0 1012 0 2 -- Chart
1970 9 30 12 30.8 153.3 1014 0 2 -- Chart
Japan Meteorological Agency Best Track Data | Correction Date : 1989-06-01
< Typhoon 197016 1970 Season Typhoon 197018 >

Help